Time;durP1;ratioP1;P1;durP2;ratioP2;P2;SDS_P1;SDS_P2;PMS_P1;PMS_P2;Temp;Humidity;BMP_temperature;BMP_pressure;BME280_temperature;BME280_humidity;BME280_pressure;Samples;Min_cycle;Max_cycle;Signal;HPM_P1;HPM_P2
2024/01/20 00:00:23;;;;;;;2.43;2.30;;;;;;;9.57;61.51;94434.88;5093314;28;20193;-65
2024/01/20 00:02:52;;;;;;;2.10;2.00;;;;;;;9.52;61.38;94446.31;5110172;28;20220;-66
2024/01/20 00:05:19;;;;;;;1.93;1.83;;;;;;;9.48;61.41;94436.50;5110534;28;20181;-68
2024/01/20 00:07:46;;;;;;;1.97;1.87;;;;;;;9.36;61.58;94445.25;5110161;28;20203;-67
2024/01/20 00:10:13;;;;;;;4.20;2.03;;;;;;;9.41;61.66;94458.41;5110208;28;20285;-67
2024/01/20 00:12:43;;;;;;;3.03;2.00;;;;;;;9.35;61.35;94462.31;5110321;28;20229;-66
2024/01/20 00:15:09;;;;;;;1.90;1.80;;;;;;;9.35;61.27;94464.88;5110813;28;20189;-63
2024/01/20 00:17:37;;;;;;;2.10;2.00;;;;;;;9.32;61.41;94456.66;5109907;28;20189;-63
2024/01/20 00:20:05;;;;;;;2.07;1.97;;;;;;;9.24;61.38;94463.28;5109784;28;20707;-64
2024/01/20 00:22:32;;;;;;;2.00;1.90;;;;;;;9.24;61.43;94473.47;5110074;28;20192;-61
2024/01/20 00:25:00;;;;;;;1.80;1.70;;;;;;;9.09;61.14;94456.97;5110243;28;20192;-67
2024/01/20 00:27:27;;;;;;;2.00;1.90;;;;;;;9.19;61.25;94487.56;5110084;28;20685;-65
2024/01/20 00:29:55;;;;;;;2.07;1.97;;;;;;;9.17;61.18;94490.25;5109928;28;20216;-68
2024/01/20 00:32:22;;;;;;;2.70;1.80;;;;;;;9.15;61.30;94487.03;5111501;28;20200;-63
2024/01/20 00:34:49;;;;;;;1.93;1.83;;;;;;;9.13;61.38;94491.47;5092915;28;20196;-64
2024/01/20 00:37:16;;;;;;;2.10;2.00;;;;;;;9.03;61.18;94486.38;5093266;28;20201;-64
2024/01/20 00:39:42;;;;;;;2.60;1.80;;;;;;;9.09;61.04;94500.31;5089404;28;20190;-67
2024/01/20 00:42:09;;;;;;;2.17;2.07;;;;;;;9.01;61.38;94495.88;5089578;28;20201;-66
2024/01/20 00:44:36;;;;;;;2.20;2.10;;;;;;;9.04;61.29;94505.03;5092266;28;20201;-65
2024/01/20 00:47:04;;;;;;;2.50;2.30;;;;;;;9.03;61.21;94505.97;5110200;28;20197;-63
2024/01/20 00:49:31;;;;;;;2.13;1.97;;;;;;;9.02;61.29;94509.44;5109464;28;20641;-64
2024/01/20 00:51:58;;;;;;;2.60;2.40;;;;;;;8.95;61.21;94498.16;5110060;28;20654;-63
2024/01/20 00:54:24;;;;;;;2.33;2.10;;;;;;;8.96;61.12;94500.56;5109978;28;20193;-64
2024/01/20 00:56:51;;;;;;;2.27;2.13;;;;;;;8.98;61.08;94514.00;5114167;28;20645;-66
2024/01/20 00:59:18;;;;;;;2.27;2.17;;;;;;;8.97;61.29;94514.13;5114071;28;20207;-68
2024/01/20 01:01:45;;;;;;;2.10;1.93;;;;;;;8.95;61.14;94523.66;5107174;28;20287;-65
2024/01/20 01:04:13;;;;;;;2.50;2.30;;;;;;;8.94;61.20;94529.72;5104452;28;20250;-63
2024/01/20 01:06:39;;;;;;;2.37;1.87;;;;;;;8.86;61.13;94520.16;5110255;28;20205;-66
2024/01/20 01:09:06;;;;;;;2.40;2.20;;;;;;;8.92;61.06;94532.38;5109354;28;20221;-64
2024/01/20 01:11:33;;;;;;;2.03;1.93;;;;;;;8.71;61.08;94513.81;5109514;28;20225;-64
2024/01/20 01:14:00;;;;;;;2.30;2.10;;;;;;;8.90;61.06;94538.56;5110062;28;20193;-62
2024/01/20 01:16:27;;;;;;;1.93;1.83;;;;;;;8.82;61.01;94518.81;5109977;28;20181;-65
2024/01/20 01:18:53;;;;;;;1.73;1.67;;;;;;;8.80;60.98;94521.47;5110215;28;20584;-65
2024/01/20 01:21:22;;;;;;;3.20;2.13;;;;;;;8.86;61.01;94537.22;5109585;28;20193;-63
2024/01/20 01:23:48;;;;;;;2.20;2.10;;;;;;;8.73;61.15;94520.41;5109887;28;20193;-63
2024/01/20 01:26:16;;;;;;;1.93;1.83;;;;;;;8.84;61.18;94547.53;5109871;28;20207;-63
2024/01/20 01:28:42;;;;;;;2.50;2.30;;;;;;;8.79;60.93;94540.25;5109654;28;20250;-64
2024/01/20 01:31:09;;;;;;;3.13;1.70;;;;;;;8.74;61.03;94532.22;5113604;28;20177;-63
2024/01/20 01:33:37;;;;;;;2.23;2.07;;;;;;;8.80;60.90;94556.38;5113556;28;20645;-64
2024/01/20 01:36:04;;;;;;;2.07;1.97;;;;;;;8.78;61.19;94559.06;5113201;28;20273;-64
2024/01/20 01:38:32;;;;;;;2.23;2.13;;;;;;;8.78;60.97;94553.16;5113292;28;20185;-63
2024/01/20 01:40:59;;;;;;;1.70;1.60;;;;;;;8.75;61.21;94546.56;5113832;28;20673;-62
2024/01/20 01:43:26;;;;;;;1.90;1.80;;;;;;;8.72;61.46;94546.00;5113525;28;20190;-64
2024/01/20 01:45:53;;;;;;;2.10;2.00;;;;;;;8.69;61.25;94534.34;5113480;28;20200;-64
2024/01/20 01:48:20;;;;;;;1.80;1.70;;;;;;;8.67;61.29;94533.66;5112803;28;20189;-65
2024/01/20 01:50:47;;;;;;;2.00;1.90;;;;;;;8.66;61.47;94538.91;5113094;28;20231;-62
2024/01/20 01:53:14;;;;;;;1.90;1.80;;;;;;;8.64;61.54;94536.47;5112533;28;20193;-65
2024/01/20 01:55:43;;;;;;;2.00;1.90;;;;;;;8.63;61.59;94544.25;5113210;28;20185;-66
2024/01/20 01:58:10;;;;;;;1.80;1.70;;;;;;;8.61;61.58;94556.31;5112625;28;20238;-67
2024/01/20 02:00:37;;;;;;;1.90;1.80;;;;;;;8.59;61.50;94553.88;5113190;28;20228;-67
2024/01/20 02:03:05;;;;;;;1.97;1.87;;;;;;;8.56;61.82;94551.63;5113039;28;20185;-68
2024/01/20 02:05:31;;;;;;;2.07;1.97;;;;;;;8.54;61.70;94556.81;5113036;28;20612;-64
2024/01/20 02:07:59;;;;;;;2.07;1.97;;;;;;;8.51;61.86;94549.44;5115676;28;20192;-69
2024/01/20 02:10:26;;;;;;;1.90;1.80;;;;;;;8.22;62.00;94511.09;5124627;28;20217;-66
2024/01/20 02:12:55;;;;;;;2.00;1.90;;;;;;;8.48;62.07;94552.25;5132068;28;20697;-62
2024/01/20 02:15:22;;;;;;;2.07;1.97;;;;;;;8.47;62.12;94554.94;5112708;28;20295;-65
2024/01/20 02:17:50;;;;;;;2.00;1.90;;;;;;;8.20;61.95;94502.78;5112437;28;20186;-66
2024/01/20 02:20:17;;;;;;;1.87;1.77;;;;;;;8.38;62.02;94546.31;5112215;28;20192;-67
2024/01/20 02:22:45;;;;;;;2.03;1.90;;;;;;;8.22;62.07;94530.66;5112996;28;20193;-68
2024/01/20 02:25:12;;;;;;;1.90;1.80;;;;;;;8.33;61.94;94547.59;5112605;28;20189;-66
2024/01/20 02:27:39;;;;;;;1.97;1.87;;;;;;;8.30;61.89;94551.22;5112816;28;20188;-65
2024/01/20 02:30:07;;;;;;;1.93;1.80;;;;;;;8.28;62.16;94542.88;5112076;28;20289;-63
2024/01/20 02:32:34;;;;;;;2.03;1.93;;;;;;;8.25;62.03;94551.59;5112736;27;20223;-65
2024/01/20 02:35:01;;;;;;;1.80;1.70;;;;;;;8.24;62.09;94570.34;5114924;28;20189;-63
2024/01/20 02:37:28;;;;;;;2.17;2.07;;;;;;;8.17;61.86;94553.16;5112780;28;20200;-62
2024/01/20 02:39:57;;;;;;;2.13;1.80;;;;;;;8.20;62.25;94560.53;5112386;28;20192;-64
2024/01/20 02:42:23;;;;;;;2.10;2.00;;;;;;;8.16;62.22;94570.19;5111125;28;20185;-64
2024/01/20 02:44:51;;;;;;;2.10;2.00;;;;;;;8.15;62.15;94596.56;5111854;28;20214;-65
2024/01/20 02:47:18;;;;;;;1.93;1.83;;;;;;;7.88;62.29;94560.63;5111809;28;20287;-66
2024/01/20 02:49:44;;;;;;;1.87;1.77;;;;;;;7.97;62.30;94591.22;5111342;28;20224;-69
2024/01/20 02:52:11;;;;;;;1.83;1.73;;;;;;;8.00;62.25;94590.19;5112119;28;20177;-69
2024/01/20 02:54:38;;;;;;;1.80;1.70;;;;;;;8.09;62.15;94609.00;5112297;28;20527;-66
2024/01/20 02:57:06;;;;;;;2.03;1.93;;;;;;;7.78;62.03;94570.75;5112376;28;20189;-62
2024/01/20 02:59:33;;;;;;;1.80;1.70;;;;;;;7.99;62.24;94609.75;5111829;28;20624;-64
2024/01/20 03:02:01;;;;;;;1.97;1.87;;;;;;;7.97;61.98;94621.78;5111787;28;20627;-70
2024/01/20 03:04:28;;;;;;;2.10;2.00;;;;;;;7.92;61.97;94606.09;5111201;28;20606;-65
2024/01/20 03:06:55;;;;;;;2.00;1.90;;;;;;;7.98;61.90;94628.50;5111659;28;20197;-64
2024/01/20 03:09:22;;;;;;;2.00;1.90;;;;;;;7.86;62.14;94608.31;5111750;28;20505;-65
2024/01/20 03:11:49;;;;;;;1.80;1.70;;;;;;;7.94;62.01;94629.66;5113541;28;20582;-63
2024/01/20 03:14:17;;;;;;;1.80;1.70;;;;;;;7.61;62.01;94584.03;5111713;28;20692;-64
2024/01/20 03:16:44;;;;;;;2.03;1.93;;;;;;;7.91;62.05;94632.47;5111349;28;20208;-65
2024/01/20 03:19:10;;;;;;;1.97;1.87;;;;;;;7.90;62.15;94646.16;5111489;28;20200;-66
2024/01/20 03:21:37;;;;;;;1.83;1.73;;;;;;;7.87;62.13;94651.47;5111243;28;20192;-69
2024/01/20 03:24:04;;;;;;;1.97;1.87;;;;;;;7.82;62.21;94643.41;5111671;28;20189;-65
2024/01/20 03:26:31;;;;;;;1.90;1.80;;;;;;;7.62;62.32;94622.06;5111571;28;20190;-67
2024/01/20 03:28:58;;;;;;;1.90;1.80;;;;;;;7.81;62.24;94672.31;5111431;28;20204;-66
2024/01/20 03:31:26;;;;;;;2.00;1.90;;;;;;;7.80;62.21;94675.78;5112085;28;20286;-63
2024/01/20 03:33:53;;;;;;;1.63;1.53;;;;;;;7.78;62.42;94682.75;5111382;28;20189;-66
2024/01/20 03:36:20;;;;;;;2.00;1.90;;;;;;;7.77;62.42;94684.50;5111377;28;20523;-64
2024/01/20 03:38:46;;;;;;;2.10;2.00;;;;;;;7.76;62.69;94689.69;5112055;28;20189;-67
2024/01/20 03:41:13;;;;;;;1.90;1.80;;;;;;;7.50;62.59;94639.09;5119298;28;20189;-68
2024/01/20 03:43:40;;;;;;;2.03;1.77;;;;;;;7.73;62.59;94680.56;5115889;28;20181;-66
2024/01/20 03:46:07;;;;;;;1.93;1.83;;;;;;;7.71;62.75;94681.63;5112558;28;20184;-68
2024/01/20 03:48:35;;;;;;;1.90;1.80;;;;;;;7.45;62.90;94638.66;5115751;28;20250;-64
2024/01/20 03:51:02;;;;;;;2.10;1.90;;;;;;;7.68;62.77;94685.19;5112092;28;20220;-65
2024/01/20 03:53:29;;;;;;;1.93;1.83;;;;;;;7.58;62.93;94670.78;5111994;28;20200;-66
2024/01/20 03:55:56;;;;;;;2.13;1.80;;;;;;;7.63;62.84;94684.75;5115850;28;20242;-66
2024/01/20 03:58:22;;;;;;;1.77;1.67;;;;;;;7.65;62.89;94699.91;5111570;28;20189;-67
2024/01/20 04:00:49;;;;;;;1.90;1.80;;;;;;;7.63;63.05;94694.13;5111814;28;20196;-65
2024/01/20 04:03:16;;;;;;;1.97;1.87;;;;;;;7.62;63.04;94697.59;5109219;28;20184;-64
2024/01/20 04:05:44;;;;;;;1.97;1.87;;;;;;;7.62;63.08;94700.16;5110418;28;20325;-65
2024/01/20 04:08:11;;;;;;;1.97;1.87;;;;;;;7.62;63.27;94700.16;5110481;28;20279;-67
2024/01/20 04:10:40;;;;;;;1.73;1.63;;;;;;;7.61;63.26;94708.72;5110175;28;20688;-65
2024/01/20 04:13:06;;;;;;;1.87;1.77;;;;;;;7.44;63.14;94698.09;5110483;28;20311;-65
2024/01/20 04:15:33;;;;;;;2.07;1.97;;;;;;;7.56;63.26;94721.81;5110855;28;20271;-66
2024/01/20 04:17:59;;;;;;;2.17;2.07;;;;;;;7.56;63.27;94734.53;5110765;28;20238;-67
2024/01/20 04:20:26;;;;;;;1.90;1.80;;;;;;;7.56;63.29;94739.63;5110327;28;20192;-64
2024/01/20 04:22:54;;;;;;;2.10;1.80;;;;;;;7.33;63.43;94704.94;5110412;28;20181;-66
2024/01/20 04:25:21;;;;;;;2.00;1.90;;;;;;;7.53;63.50;94740.66;5110252;28;20181;-65
2024/01/20 04:27:48;;;;;;;1.80;1.70;;;;;;;7.52;63.50;94744.13;5110587;28;20177;-66
2024/01/20 04:30:15;;;;;;;1.87;1.77;;;;;;;7.37;63.55;94731.75;5110211;28;20200;-65
2024/01/20 04:32:41;;;;;;;1.63;1.57;;;;;;;7.52;63.66;94756.03;5113641;28;20189;-67
2024/01/20 04:35:09;;;;;;;1.97;1.87;;;;;;;7.52;63.57;94759.41;5112364;28;20189;-64
2024/01/20 04:37:36;;;;;;;1.80;1.70;;;;;;;7.33;63.54;94736.28;5110139;28;20192;-68
2024/01/20 04:40:06;;;;;;;2.00;1.90;;;;;;;7.51;63.66;94769.66;5110333;28;20739;-65
2024/01/20 04:42:32;;;;;;;1.90;1.80;;;;;;;7.51;63.65;94769.66;5110129;28;20184;-65
2024/01/20 04:45:03;;;;;;;2.10;2.00;;;;;;;7.50;63.78;94771.41;5110461;28;20260;-68
2024/01/20 04:47:29;;;;;;;1.80;1.70;;;;;;;7.49;63.84;94771.53;5109986;28;20196;-69
2024/01/20 04:49:56;;;;;;;1.83;1.73;;;;;;;7.29;63.86;94742.50;5109888;28;20219;-67
2024/01/20 04:52:24;;;;;;;1.80;1.70;;;;;;;7.48;63.80;94775.00;5109772;28;20197;-65
2024/01/20 04:54:52;;;;;;;1.93;1.83;;;;;;;7.33;63.90;94756.63;5109901;28;20546;-66
2024/01/20 04:57:20;;;;;;;1.80;1.70;;;;;;;7.39;63.89;94768.09;5110097;28;20185;-67
2024/01/20 04:59:48;;;;;;;2.00;1.90;;;;;;;7.23;63.98;94751.44;5110328;28;20189;-66
2024/01/20 05:02:15;;;;;;;2.03;1.80;;;;;;;7.38;63.99;94774.88;5109378;28;20217;-68
2024/01/20 05:04:42;;;;;;;1.70;1.67;;;;;;;7.42;63.96;94785.63;5111416;27;20181;-70
2024/01/20 05:07:08;;;;;;;1.90;1.80;;;;;;;7.40;64.04;94788.31;5114046;28;20653;-68
2024/01/20 05:09:36;;;;;;;1.90;1.80;;;;;;;7.35;64.05;94785.31;5114323;28;20207;-67
2024/01/20 05:12:02;;;;;;;2.00;1.80;;;;;;;7.39;63.92;94790.97;5114077;28;20316;-65
2024/01/20 05:14:31;;;;;;;1.83;1.73;;;;;;;7.16;64.05;94749.44;5114152;28;20605;-68
2024/01/20 05:16:58;;;;;;;1.80;1.70;;;;;;;6.74;64.00;94694.09;5113980;28;20193;-67
2024/01/20 05:19:24;;;;;;;2.07;1.97;;;;;;;7.32;64.06;94800.78;5113867;28;20642;-69
2024/01/20 05:21:51;;;;;;;1.97;1.80;;;;;;;7.25;64.04;94789.44;5113966;28;20193;-68
2024/01/20 05:24:18;;;;;;;1.80;1.70;;;;;;;7.29;63.99;94799.28;5114074;28;20177;-68
2024/01/20 05:26:45;;;;;;;1.83;1.73;;;;;;;7.28;64.19;94801.94;5114042;28;20215;-67
2024/01/20 05:29:11;;;;;;;2.00;1.90;;;;;;;7.26;64.08;94802.06;5114521;28;20188;-65
2024/01/20 05:31:40;;;;;;;1.90;1.80;;;;;;;7.24;64.12;94796.28;5113513;28;20626;-65
2024/01/20 05:34:07;;;;;;;2.00;1.90;;;;;;;7.25;64.31;94804.72;5093370;28;20579;-65
2024/01/20 05:36:34;;;;;;;1.90;1.80;;;;;;;7.22;64.17;94795.59;5112380;28;20193;-69
2024/01/20 05:39:01;;;;;;;2.40;2.20;;;;;;;7.22;64.20;94798.13;5113824;28;20185;-68
2024/01/20 05:41:28;;;;;;;2.10;2.00;;;;;;;7.23;64.25;94801.50;5113560;28;20522;-64
2024/01/20 05:43:55;;;;;;;2.20;2.10;;;;;;;7.20;64.26;94801.72;5113341;28;20189;-66
2024/01/20 05:46:22;;;;;;;2.40;2.13;;;;;;;7.18;64.27;94814.53;5113044;28;20185;-66
2024/01/20 05:48:50;;;;;;;2.10;2.00;;;;;;;7.19;64.13;94815.34;5113275;28;20185;-67
2024/01/20 05:51:16;;;;;;;2.30;2.10;;;;;;;7.17;64.14;94804.50;5115888;28;20213;-66
2024/01/20 05:53:43;;;;;;;2.40;2.20;;;;;;;7.15;64.23;94806.34;5113128;28;20658;-68
2024/01/20 05:56:10;;;;;;;2.33;2.13;;;;;;;6.99;64.33;94788.84;5112956;28;20644;-66
2024/01/20 05:58:37;;;;;;;2.20;2.10;;;;;;;7.03;64.37;94797.88;5113239;28;20204;-70
2024/01/20 06:01:04;;;;;;;2.40;2.20;;;;;;;6.93;64.55;94779.94;5112737;28;20188;-62
2024/01/20 06:03:30;;;;;;;1.80;1.70;;;;;;;7.10;64.28;94816.03;5113411;28;20187;-63
2024/01/20 06:05:58;;;;;;;2.40;2.20;;;;;;;7.10;64.42;94818.59;5113255;28;20189;-64
2024/01/20 06:08:26;;;;;;;2.57;2.37;;;;;;;7.10;64.32;94821.13;5113102;28;20246;-67
2024/01/20 06:10:53;;;;;;;2.03;1.93;;;;;;;7.07;64.24;94819.59;5113104;28;20209;-69
2024/01/20 06:13:20;;;;;;;2.67;2.30;;;;;;;6.79;64.19;94780.97;5113327;28;20231;-66
2024/01/20 06:15:49;;;;;;;2.20;2.10;;;;;;;7.06;64.29;94825.63;5112551;28;20623;-65
2024/01/20 06:18:16;;;;;;;2.00;1.90;;;;;;;7.00;64.33;94821.81;5113186;28;20197;-69
2024/01/20 06:20:43;;;;;;;2.00;1.90;;;;;;;7.06;64.39;94830.72;5123701;28;20181;-68
2024/01/20 06:23:11;;;;;;;2.00;1.90;;;;;;;7.06;64.44;94829.91;5119619;28;20193;-65
2024/01/20 06:25:37;;;;;;;2.43;2.23;;;;;;;7.05;64.48;94841.81;5124447;28;20290;-69
2024/01/20 06:28:05;;;;;;;2.60;2.40;;;;;;;7.04;64.29;94835.91;5114914;28;20185;-65
2024/01/20 06:30:32;;;;;;;2.03;1.93;;;;;;;7.04;64.37;94846.09;5113715;28;20223;-67
2024/01/20 06:32:59;;;;;;;2.20;2.10;;;;;;;7.02;64.40;94842.03;5119146;28;20547;-63
2024/01/20 06:35:26;;;;;;;2.27;2.17;;;;;;;7.08;64.39;94854.31;5119584;28;20298;-65
2024/01/20 06:37:53;;;;;;;2.77;2.27;;;;;;;7.00;64.37;94842.16;5129423;28;20642;-65
2024/01/20 06:40:21;;;;;;;2.37;2.17;;;;;;;7.01;64.38;94843.75;5121299;28;20551;-67
2024/01/20 06:42:48;;;;;;;2.57;2.37;;;;;;;6.92;64.27;94828.38;5113175;28;20205;-66
2024/01/20 06:45:14;;;;;;;2.43;2.23;;;;;;;5.87;64.16;94661.53;5112712;28;20569;-69
2024/01/20 06:47:41;;;;;;;2.17;2.00;;;;;;;7.13;64.32;94866.69;5112050;28;20189;-65
2024/01/20 06:50:09;;;;;;;2.70;2.40;;;;;;;7.14;64.21;94869.09;5112188;28;20579;-65
2024/01/20 06:52:36;;;;;;;2.50;2.30;;;;;;;7.01;64.24;94848.84;5111958;28;20252;-67
2024/01/20 06:55:03;;;;;;;2.27;2.17;;;;;;;6.94;64.02;94839.22;5112110;28;20189;-67
2024/01/20 06:57:31;;;;;;;2.23;2.13;;;;;;;7.00;63.83;94847.22;5091844;28;20185;-65
2024/01/20 06:59:58;;;;;;;2.47;2.27;;;;;;;7.19;64.04;94877.19;5091930;28;20283;-68
2024/01/20 07:02:24;;;;;;;2.63;2.43;;;;;;;7.11;64.10;94860.88;5097897;28;20196;-65
2024/01/20 07:04:51;;;;;;;2.50;2.30;;;;;;;7.22;63.97;94884.63;5111759;28;20196;-67
2024/01/20 07:07:18;;;;;;;2.47;2.27;;;;;;;7.23;63.95;94890.50;5111295;28;20573;-66
2024/01/20 07:09:45;;;;;;;2.50;2.30;;;;;;;7.10;63.97;94872.78;5111726;28;20189;-64
2024/01/20 07:12:12;;;;;;;2.50;2.30;;;;;;;7.23;63.63;94890.50;5111751;28;20228;-68
2024/01/20 07:14:42;;;;;;;2.60;2.40;;;;;;;7.24;63.91;94900.56;5111435;28;20276;-66
2024/01/20 07:17:08;;;;;;;4.20;2.60;;;;;;;7.26;63.82;94896.19;5111611;28;20233;-68
2024/01/20 07:19:35;;;;;;;2.87;2.60;;;;;;;7.27;63.84;94900.34;5111901;28;20177;-67
2024/01/20 07:22:02;;;;;;;3.47;2.90;;;;;;;7.28;63.66;94901.94;5111852;28;20181;-66
2024/01/20 07:24:29;;;;;;;2.77;2.23;;;;;;;7.26;63.61;94903.00;5111343;28;20644;-69
2024/01/20 07:26:56;;;;;;;3.47;2.93;;;;;;;7.29;63.73;94921.38;5111293;28;20204;-68
2024/01/20 07:29:23;;;;;;;2.80;2.60;;;;;;;7.31;63.71;94913.66;5111527;28;20185;-66
2024/01/20 07:31:51;;;;;;;2.43;2.23;;;;;;;7.30;63.59;94917.13;5107294;28;20232;-66
2024/01/20 07:34:19;;;;;;;2.40;2.20;;;;;;;7.34;63.48;94927.84;5109596;28;20668;-64
2024/01/20 07:36:46;;;;;;;2.50;2.30;;;;;;;7.35;63.56;94939.69;5109425;28;20181;-71
2024/01/20 07:39:13;;;;;;;2.73;2.53;;;;;;;7.07;63.55;94890.81;5109199;28;20192;-70
2024/01/20 07:41:39;;;;;;;2.47;2.30;;;;;;;7.32;63.66;94935.63;5110043;28;20200;-62
2024/01/20 07:44:06;;;;;;;2.73;2.53;;;;;;;7.41;63.53;94944.31;5110039;28;20185;-63
2024/01/20 07:46:33;;;;;;;2.73;2.33;;;;;;;7.43;63.42;94945.81;5108706;28;20189;-65
2024/01/20 07:49:01;;;;;;;2.57;2.37;;;;;;;7.34;63.33;94936.34;5108922;28;20657;-64
2024/01/20 07:51:31;;;;;;;2.73;2.40;;;;;;;7.49;63.34;94959.81;5109735;28;20209;-64
2024/01/20 07:53:57;;;;;;;2.70;2.47;;;;;;;7.48;63.18;94948.03;5109043;28;20199;-65
2024/01/20 07:56:24;;;;;;;3.07;2.77;;;;;;;7.56;63.23;94963.56;5108726;28;20185;-67
2024/01/20 07:58:51;;;;;;;2.80;2.60;;;;;;;7.54;63.02;94950.94;5108645;28;20192;-66
2024/01/20 08:01:18;;;;;;;2.70;2.50;;;;;;;7.47;62.96;94946.38;5108561;28;20177;-62
2024/01/20 08:03:45;;;;;;;2.83;2.57;;;;;;;7.67;62.96;94971.19;5109103;28;20185;-71
2024/01/20 08:06:13;;;;;;;2.70;2.50;;;;;;;7.64;62.71;94976.53;5110588;28;20212;-69
2024/01/20 08:08:40;;;;;;;2.57;2.37;;;;;;;7.70;62.68;94977.81;5117708;28;20207;-65
2024/01/20 08:11:07;;;;;;;4.97;3.07;;;;;;;7.70;62.73;94981.16;5112481;28;20608;-69
2024/01/20 08:13:33;;;;;;;3.10;2.80;;;;;;;7.76;62.52;94990.88;5109535;28;20463;-64
2024/01/20 08:16:00;;;;;;;3.10;2.80;;;;;;;7.79;62.60;94983.03;5111355;28;20185;-69
2024/01/20 08:18:28;;;;;;;2.83;2.63;;;;;;;7.84;62.40;94971.69;5116737;28;20211;-65
2024/01/20 08:20:55;;;;;;;3.30;3.00;;;;;;;7.87;62.41;94984.19;5110022;28;20192;-65
2024/01/20 08:23:23;;;;;;;2.77;2.57;;;;;;;7.92;62.32;94984.66;5114253;28;20200;-65
2024/01/20 08:25:50;;;;;;;2.70;2.50;;;;;;;7.96;62.30;94999.59;5115054;28;20203;-66
2024/01/20 08:28:17;;;;;;;8.77;2.93;;;;;;;8.00;62.08;95016.28;5110982;28;20223;-64
2024/01/20 08:30:43;;;;;;;2.97;2.60;;;;;;;8.00;62.08;95001.00;5109716;28;20184;-66
2024/01/20 08:33:10;;;;;;;2.60;2.40;;;;;;;8.06;61.74;95015.00;5109021;28;20728;-66
2024/01/20 08:35:37;;;;;;;6.43;3.20;;;;;;;8.06;61.80;95017.53;5108566;28;20292;-65
2024/01/20 08:38:04;;;;;;;3.67;3.03;;;;;;;8.13;61.84;95023.00;5110027;28;20612;-65
2024/01/20 08:40:32;;;;;;;3.53;3.23;;;;;;;8.02;61.62;94990.69;5108607;28;20188;-63
2024/01/20 08:42:59;;;;;;;3.17;2.87;;;;;;;8.21;61.64;95013.84;5107615;28;20579;-64
2024/01/20 08:45:26;;;;;;;3.27;2.97;;;;;;;8.18;61.63;95006.44;5108172;28;20189;-63
2024/01/20 08:47:54;;;;;;;3.40;3.10;;;;;;;8.23;61.49;94996.72;5107764;28;20196;-64
2024/01/20 08:50:20;;;;;;;3.70;3.03;;;;;;;8.24;61.39;95005.16;5107797;28;20188;-65
2024/01/20 08:52:47;;;;;;;4.00;2.93;;;;;;;8.41;61.08;95019.22;5107310;28;20337;-66
2024/01/20 08:55:14;;;;;;;3.37;3.07;;;;;;;8.30;61.00;94987.69;5108099;28;20188;-63
2024/01/20 08:57:43;;;;;;;2.83;2.60;;;;;;;8.70;60.88;95045.03;5107403;28;20192;-66
2024/01/20 09:00:12;;;;;;;2.70;2.50;;;;;;;8.97;77.00;95034.44;5106922;28;20186;-62
2024/01/20 09:02:39;;;;;;;3.20;2.87;;;;;;;9.45;79.29;95034.84;5108275;28;20250;-67
2024/01/20 09:05:07;;;;;;;3.63;2.83;;;;;;;9.70;75.60;95038.00;5109376;28;20665;-68
2024/01/20 09:07:33;;;;;;;3.50;3.20;;;;;;;9.82;72.52;95036.22;5112452;28;20216;-73
2024/01/20 09:10:02;;;;;;;2.90;2.67;;;;;;;9.87;70.46;95031.53;5107658;28;20196;-68
2024/01/20 09:12:29;;;;;;;3.83;3.10;;;;;;;9.90;69.22;95044.06;5108051;28;20348;-65
2024/01/20 09:14:57;;;;;;;3.30;3.00;;;;;;;9.73;68.42;95022.44;5112084;28;20624;-74
2024/01/20 09:17:24;;;;;;;3.27;3.00;;;;;;;9.91;67.50;95048.22;5112038;27;20185;-71
2024/01/20 09:19:51;;;;;;;3.70;3.40;;;;;;;9.79;66.55;95035.50;5107234;28;20181;-68
2024/01/20 09:22:18;;;;;;;3.33;3.00;;;;;;;9.85;66.32;95053.84;5107616;28;20576;-70
2024/01/20 09:24:45;;;;;;;3.37;3.07;;;;;;;9.57;65.92;95022.06;5107303;28;20204;-65
2024/01/20 09:27:12;;;;;;;3.93;3.50;;;;;;;9.47;65.35;95010.03;5107507;28;20185;-63
2024/01/20 09:29:38;;;;;;;4.47;3.70;;;;;;;9.82;64.72;95052.34;5107336;28;20188;-62
2024/01/20 09:32:08;;;;;;;5.33;4.03;;;;;;;9.72;64.42;95047.19;5107736;28;20260;-64
2024/01/20 09:34:35;;;;;;;4.50;3.40;;;;;;;9.64;63.96;95036.75;5107963;28;20557;-65
2024/01/20 09:37:01;;;;;;;3.73;3.33;;;;;;;9.71;63.62;95047.28;5107268;28;20200;-63
2024/01/20 09:39:28;;;;;;;5.70;3.43;;;;;;;9.59;63.35;95023.56;5107813;28;20196;-66
2024/01/20 09:41:56;;;;;;;4.23;3.90;;;;;;;9.89;62.90;95076.47;5109392;28;20197;-63
2024/01/20 09:44:33;;;;;;;4.00;3.40;;;;;;;9.88;62.56;95069.72;5111312;28;20561;-70
2024/01/20 09:47:00;;;;;;;5.03;3.40;;;;;;;9.83;62.36;95061.63;5107635;28;20242;-66
2024/01/20 09:49:28;;;;;;;5.37;4.03;;;;;;;9.89;62.06;95075.66;5108025;28;20197;-65
2024/01/20 09:52:07;;;;;;;7.03;3.63;;;;;;;9.91;61.87;95072.03;5109922;28;20205;-66
2024/01/20 09:54:37;;;;;;;5.60;4.40;;;;;;;9.91;61.61;95059.25;5111256;28;20653;-68
2024/01/20 09:57:05;;;;;;;5.20;4.37;;;;;;;9.90;61.46;95059.41;5110784;28;20200;-72
2024/01/20 09:59:33;;;;;;;4.37;3.67;;;;;;;9.89;61.29;95066.25;5110764;28;20589;-70
2024/01/20 10:02:00;;;;;;;4.53;4.13;;;;;;;9.87;61.17;95067.28;5110492;28;20181;-68
2024/01/20 10:04:29;;;;;;;5.67;4.53;;;;;;;9.57;61.20;95020.31;5110858;28;20193;-71
2024/01/20 10:06:56;;;;;;;5.53;4.43;;;;;;;9.86;60.82;95060.56;5109716;28;20204;-69
2024/01/20 10:09:24;;;;;;;5.57;4.33;;;;;;;9.80;60.83;95054.19;5112581;28;20197;-70
2024/01/20 10:11:50;;;;;;;6.60;4.20;;;;;;;9.83;60.54;95055.69;5110197;28;20316;-69
2024/01/20 10:14:17;;;;;;;5.70;4.30;;;;;;;9.68;60.55;95038.13;5111022;28;20304;-68
2024/01/20 10:16:44;;;;;;;5.77;4.73;;;;;;;9.69;60.39;95042.31;5110889;28;20196;-69
2024/01/20 10:19:11;;;;;;;6.17;4.47;;;;;;;9.79;60.35;95053.38;5110677;28;20211;-66
2024/01/20 10:21:42;;;;;;;6.13;5.00;;;;;;;9.80;60.22;95054.19;5110396;28;20216;-70
2024/01/20 10:24:09;;;;;;;4.80;4.30;;;;;;;9.82;60.24;95046.44;5115251;28;20192;-71
2024/01/20 10:26:42;;;;;;;5.10;4.60;;;;;;;9.69;60.00;95011.66;5118862;28;20193;-67
2024/01/20 10:29:09;;;;;;;6.43;5.07;;;;;;;9.83;59.94;95050.59;5123172;28;20213;-68
2024/01/20 10:31:36;;;;;;;8.07;4.87;;;;;;;9.87;59.75;95047.66;5111460;28;20564;-62
2024/01/20 10:34:03;;;;;;;5.90;5.30;;;;;;;9.82;59.57;95039.56;5109949;28;20185;-64
2024/01/20 10:36:30;;;;;;;7.37;5.43;;;;;;;9.88;59.41;95051.03;5113191;28;20297;-68
2024/01/20 10:39:02;;;;;;;6.17;4.93;;;;;;;9.84;59.26;95040.25;5114411;28;20222;-64
2024/01/20 10:41:30;;;;;;;6.80;5.43;;;;;;;9.87;59.21;95051.97;5116978;28;20222;-68
2024/01/20 10:44:02;;;;;;;6.83;4.93;;;;;;;9.87;59.19;95050.22;5113819;28;20208;-66
2024/01/20 10:46:34;;;;;;;5.13;4.63;;;;;;;9.87;58.96;95051.97;5111904;28;20566;-64
2024/01/20 10:49:01;;;;;;;5.97;4.80;;;;;;;9.87;59.12;95054.53;5111165;28;20204;-66
2024/01/20 10:51:28;;;;;;;5.93;5.33;;;;;;;9.85;59.12;95049.56;5109710;28;20685;-73
2024/01/20 10:53:56;;;;;;;8.07;5.73;;;;;;;9.83;59.15;95048.84;5109896;28;20224;-64
2024/01/20 10:56:25;;;;;;;6.40;5.27;;;;;;;9.75;59.08;95053.75;5109851;28;20181;-64
2024/01/20 10:59:04;;;;;;;5.77;5.10;;;;;;;9.78;59.05;95056.88;5109736;28;20240;-67
2024/01/20 11:01:31;;;;;;;5.50;5.00;;;;;;;9.75;59.04;95041.78;5109773;28;20203;-67
2024/01/20 11:03:58;;;;;;;6.27;5.37;;;;;;;9.75;59.02;95051.22;5109156;28;20217;-70
2024/01/20 11:06:25;;;;;;;5.90;5.13;;;;;;;9.74;59.08;95047.03;5109749;28;20192;-66
2024/01/20 11:08:53;;;;;;;6.40;5.37;;;;;;;9.61;58.92;95029.34;5109153;28;20196;-63
2024/01/20 11:11:20;;;;;;;6.23;5.63;;;;;;;9.70;58.90;95049.03;5112428;28;20189;-64
2024/01/20 11:13:49;;;;;;;8.67;5.83;;;;;;;9.67;58.85;95041.63;5109722;28;20333;-72
2024/01/20 11:16:30;;;;;;;5.70;5.17;;;;;;;9.58;59.02;95034.69;5110056;28;20181;-66
2024/01/20 11:19:07;;;;;;;5.40;4.77;;;;;;;9.38;59.15;95004.84;5109277;28;20185;-68
2024/01/20 11:21:34;;;;;;;7.30;5.50;;;;;;;9.58;58.95;95038.97;5109118;28;20196;-67
2024/01/20 11:24:03;;;;;;;8.33;6.10;;;;;;;9.53;59.11;95042.72;5108822;28;20676;-68
2024/01/20 11:26:34;;;;;;;6.10;5.33;;;;;;;9.32;59.04;95016.34;5109559;28;20201;-67
2024/01/20 11:29:04;;;;;;;6.07;4.97;;;;;;;9.43;59.08;95046.13;5108283;27;20216;-62
2024/01/20 11:31:31;;;;;;;7.87;5.20;;;;;;;9.23;59.10;95019.63;5111518;28;20622;-70
2024/01/20 11:33:59;;;;;;;5.63;5.03;;;;;;;9.37;59.18;95050.00;5111607;28;20228;-74
2024/01/20 11:36:29;;;;;;;5.50;5.00;;;;;;;9.30;59.20;95046.28;5111643;28;20212;-72
2024/01/20 11:38:57;;;;;;;7.27;5.00;;;;;;;9.29;59.07;95044.69;5111134;28;20223;-72
2024/01/20 11:41:28;;;;;;;6.43;5.50;;;;;;;8.99;59.11;95009.63;5112233;27;20228;-67